sensor_id;sensor_type;location;lat;lon;timestamp;P1;durP1;ratioP1;P2;durP2;ratioP2
4244;SDS011;2136;48.502;9.194;2023-12-20T00:02:17;2.57;;;2.23;;
4244;SDS011;2136;48.502;9.194;2023-12-20T00:04:43;4.67;;;2.47;;
4244;SDS011;2136;48.502;9.194;2023-12-20T00:07:10;2.13;;;1.93;;
4244;SDS011;2136;48.502;9.194;2023-12-20T00:09:39;2.63;;;2.43;;
4244;SDS011;2136;48.502;9.194;2023-12-20T00:12:05;2.53;;;2.20;;
4244;SDS011;2136;48.502;9.194;2023-12-20T00:14:33;2.07;;;1.77;;
4244;SDS011;2136;48.502;9.194;2023-12-20T00:16:59;2.20;;;2.10;;
4244;SDS011;2136;48.502;9.194;2023-12-20T00:19:26;2.30;;;1.77;;
4244;SDS011;2136;48.502;9.194;2023-12-20T00:21:53;5.63;;;2.20;;
4244;SDS011;2136;48.502;9.194;2023-12-20T00:24:20;3.00;;;2.30;;
4244;SDS011;2136;48.502;9.194;2023-12-20T00:26:48;3.17;;;2.40;;
4244;SDS011;2136;48.502;9.194;2023-12-20T00:29:15;4.03;;;2.30;;
4244;SDS011;2136;48.502;9.194;2023-12-20T00:31:42;6.23;;;2.77;;
4244;SDS011;2136;48.502;9.194;2023-12-20T00:34:09;2.13;;;1.93;;
4244;SDS011;2136;48.502;9.194;2023-12-20T00:36:36;2.37;;;1.90;;
4244;SDS011;2136;48.502;9.194;2023-12-20T00:39:03;2.43;;;1.77;;
4244;SDS011;2136;48.502;9.194;2023-12-20T00:41:31;1.83;;;1.70;;
4244;SDS011;2136;48.502;9.194;2023-12-20T00:44:00;2.47;;;2.37;;
4244;SDS011;2136;48.502;9.194;2023-12-20T00:46:27;2.20;;;2.00;;
4244;SDS011;2136;48.502;9.194;2023-12-20T00:48:53;1.60;;;1.50;;
4244;SDS011;2136;48.502;9.194;2023-12-20T00:51:20;2.30;;;2.10;;
4244;SDS011;2136;48.502;9.194;2023-12-20T00:53:50;1.47;;;1.37;;
4244;SDS011;2136;48.502;9.194;2023-12-20T00:56:19;1.40;;;1.30;;
4244;SDS011;2136;48.502;9.194;2023-12-20T00:58:46;1.43;;;1.33;;
4244;SDS011;2136;48.502;9.194;2023-12-20T01:01:14;1.50;;;1.10;;
4244;SDS011;2136;48.502;9.194;2023-12-20T01:03:42;1.63;;;1.53;;
4244;SDS011;2136;48.502;9.194;2023-12-20T01:06:09;1.23;;;1.20;;
4244;SDS011;2136;48.502;9.194;2023-12-20T01:08:37;2.40;;;1.20;;
4244;SDS011;2136;48.502;9.194;2023-12-20T01:11:03;1.20;;;1.20;;
4244;SDS011;2136;48.502;9.194;2023-12-20T01:13:31;1.03;;;1.03;;
4244;SDS011;2136;48.502;9.194;2023-12-20T01:15:57;4.60;;;1.07;;
4244;SDS011;2136;48.502;9.194;2023-12-20T01:18:26;1.23;;;1.20;;
4244;SDS011;2136;48.502;9.194;2023-12-20T01:20:53;1.40;;;1.30;;
4244;SDS011;2136;48.502;9.194;2023-12-20T01:23:19;1.33;;;1.23;;
4244;SDS011;2136;48.502;9.194;2023-12-20T01:25:46;1.47;;;1.37;;
4244;SDS011;2136;48.502;9.194;2023-12-20T01:28:14;2.93;;;2.00;;
4244;SDS011;2136;48.502;9.194;2023-12-20T01:30:41;1.73;;;1.60;;
4244;SDS011;2136;48.502;9.194;2023-12-20T01:33:07;2.70;;;1.93;;
4244;SDS011;2136;48.502;9.194;2023-12-20T01:35:36;1.47;;;1.43;;
4244;SDS011;2136;48.502;9.194;2023-12-20T01:38:02;2.97;;;1.40;;
4244;SDS011;2136;48.502;9.194;2023-12-20T01:40:29;2.20;;;1.30;;
4244;SDS011;2136;48.502;9.194;2023-12-20T01:42:59;1.43;;;1.33;;
4244;SDS011;2136;48.502;9.194;2023-12-20T01:45:26;1.25;;;1.15;;
4244;SDS011;2136;48.502;9.194;2023-12-20T01:47:53;1.70;;;1.60;;
4244;SDS011;2136;48.502;9.194;2023-12-20T01:50:20;1.40;;;1.10;;
4244;SDS011;2136;48.502;9.194;2023-12-20T01:52:49;3.17;;;1.13;;
4244;SDS011;2136;48.502;9.194;2023-12-20T01:55:17;1.17;;;1.07;;
4244;SDS011;2136;48.502;9.194;2023-12-20T01:57:45;1.30;;;1.20;;
4244;SDS011;2136;48.502;9.194;2023-12-20T02:00:12;1.10;;;1.10;;
4244;SDS011;2136;48.502;9.194;2023-12-20T02:02:40;5.53;;;1.70;;
4244;SDS011;2136;48.502;9.194;2023-12-20T02:05:07;1.10;;;1.10;;
4244;SDS011;2136;48.502;9.194;2023-12-20T02:07:35;2.10;;;1.90;;
4244;SDS011;2136;48.502;9.194;2023-12-20T02:10:03;3.27;;;1.17;;
4244;SDS011;2136;48.502;9.194;2023-12-20T02:12:31;1.10;;;1.10;;
4244;SDS011;2136;48.502;9.194;2023-12-20T02:14:57;1.80;;;1.70;;
4244;SDS011;2136;48.502;9.194;2023-12-20T02:17:28;4.10;;;2.27;;
4244;SDS011;2136;48.502;9.194;2023-12-20T02:19:57;3.30;;;1.90;;
4244;SDS011;2136;48.502;9.194;2023-12-20T02:22:25;3.57;;;2.77;;
4244;SDS011;2136;48.502;9.194;2023-12-20T02:24:52;2.97;;;1.83;;
4244;SDS011;2136;48.502;9.194;2023-12-20T02:27:19;1.97;;;1.50;;
4244;SDS011;2136;48.502;9.194;2023-12-20T02:29:47;4.83;;;3.33;;
4244;SDS011;2136;48.502;9.194;2023-12-20T02:32:14;1.77;;;1.67;;
4244;SDS011;2136;48.502;9.194;2023-12-20T02:34:41;4.50;;;2.67;;
4244;SDS011;2136;48.502;9.194;2023-12-20T02:37:08;2.93;;;2.33;;
4244;SDS011;2136;48.502;9.194;2023-12-20T02:39:36;7.83;;;3.63;;
4244;SDS011;2136;48.502;9.194;2023-12-20T02:42:03;8.00;;;3.80;;
4244;SDS011;2136;48.502;9.194;2023-12-20T02:44:30;5.27;;;2.87;;
4244;SDS011;2136;48.502;9.194;2023-12-20T02:46:57;6.00;;;2.93;;
4244;SDS011;2136;48.502;9.194;2023-12-20T02:49:24;1.07;;;0.97;;
4244;SDS011;2136;48.502;9.194;2023-12-20T02:51:50;1.83;;;1.63;;
4244;SDS011;2136;48.502;9.194;2023-12-20T02:54:17;2.30;;;1.60;;
4244;SDS011;2136;48.502;9.194;2023-12-20T02:56:45;1.33;;;1.33;;
4244;SDS011;2136;48.502;9.194;2023-12-20T02:59:12;1.10;;;1.00;;
4244;SDS011;2136;48.502;9.194;2023-12-20T03:01:41;3.10;;;1.33;;
4244;SDS011;2136;48.502;9.194;2023-12-20T03:04:08;1.40;;;1.30;;
4244;SDS011;2136;48.502;9.194;2023-12-20T03:06:35;5.60;;;3.00;;
4244;SDS011;2136;48.502;9.194;2023-12-20T03:09:02;1.60;;;1.27;;
4244;SDS011;2136;48.502;9.194;2023-12-20T03:11:29;4.33;;;2.00;;
4244;SDS011;2136;48.502;9.194;2023-12-20T03:13:57;1.20;;;1.10;;
4244;SDS011;2136;48.502;9.194;2023-12-20T03:16:24;1.20;;;1.20;;
4244;SDS011;2136;48.502;9.194;2023-12-20T03:18:51;0.90;;;0.90;;
4244;SDS011;2136;48.502;9.194;2023-12-20T03:21:18;2.10;;;1.50;;
4244;SDS011;2136;48.502;9.194;2023-12-20T03:23:45;1.40;;;1.30;;
4244;SDS011;2136;48.502;9.194;2023-12-20T03:26:12;2.17;;;1.50;;
4244;SDS011;2136;48.502;9.194;2023-12-20T03:28:39;2.60;;;2.30;;
4244;SDS011;2136;48.502;9.194;2023-12-20T03:31:07;1.67;;;1.57;;
4244;SDS011;2136;48.502;9.194;2023-12-20T03:33:36;0.80;;;0.80;;
4244;SDS011;2136;48.502;9.194;2023-12-20T03:36:02;1.07;;;0.97;;
4244;SDS011;2136;48.502;9.194;2023-12-20T03:38:29;1.00;;;1.00;;
4244;SDS011;2136;48.502;9.194;2023-12-20T03:40:56;1.00;;;1.00;;
4244;SDS011;2136;48.502;9.194;2023-12-20T03:43:23;1.10;;;1.03;;
4244;SDS011;2136;48.502;9.194;2023-12-20T03:45:50;1.07;;;1.07;;
4244;SDS011;2136;48.502;9.194;2023-12-20T03:48:18;1.53;;;1.43;;
4244;SDS011;2136;48.502;9.194;2023-12-20T03:50:45;1.30;;;1.20;;
4244;SDS011;2136;48.502;9.194;2023-12-20T03:53:12;1.33;;;1.23;;
4244;SDS011;2136;48.502;9.194;2023-12-20T03:55:39;1.00;;;0.97;;
4244;SDS011;2136;48.502;9.194;2023-12-20T03:58:06;1.00;;;1.00;;
4244;SDS011;2136;48.502;9.194;2023-12-20T04:00:32;0.80;;;0.70;;
4244;SDS011;2136;48.502;9.194;2023-12-20T04:02:59;1.53;;;1.07;;
4244;SDS011;2136;48.502;9.194;2023-12-20T04:05:27;1.00;;;1.00;;
4244;SDS011;2136;48.502;9.194;2023-12-20T04:07:54;1.00;;;1.00;;
4244;SDS011;2136;48.502;9.194;2023-12-20T04:10:21;1.63;;;1.10;;
4244;SDS011;2136;48.502;9.194;2023-12-20T04:12:48;1.30;;;1.20;;
4244;SDS011;2136;48.502;9.194;2023-12-20T04:15:15;1.53;;;1.47;;
4244;SDS011;2136;48.502;9.194;2023-12-20T04:17:41;2.10;;;1.10;;
4244;SDS011;2136;48.502;9.194;2023-12-20T04:20:09;1.00;;;1.00;;
4244;SDS011;2136;48.502;9.194;2023-12-20T04:22:37;0.80;;;0.80;;
4244;SDS011;2136;48.502;9.194;2023-12-20T04:25:04;1.50;;;1.40;;
4244;SDS011;2136;48.502;9.194;2023-12-20T04:27:31;1.03;;;1.03;;
4244;SDS011;2136;48.502;9.194;2023-12-20T04:29:58;1.30;;;1.20;;
4244;SDS011;2136;48.502;9.194;2023-12-20T04:32:25;0.80;;;0.80;;
4244;SDS011;2136;48.502;9.194;2023-12-20T04:34:52;1.00;;;1.00;;
4244;SDS011;2136;48.502;9.194;2023-12-20T04:37:18;1.23;;;1.10;;
4244;SDS011;2136;48.502;9.194;2023-12-20T04:39:47;0.87;;;0.80;;
4244;SDS011;2136;48.502;9.194;2023-12-20T04:42:13;1.13;;;1.10;;
4244;SDS011;2136;48.502;9.194;2023-12-20T04:44:40;0.80;;;0.80;;
4244;SDS011;2136;48.502;9.194;2023-12-20T04:47:08;1.03;;;0.60;;
4244;SDS011;2136;48.502;9.194;2023-12-20T04:49:35;1.77;;;0.83;;
4244;SDS011;2136;48.502;9.194;2023-12-20T04:52:02;0.70;;;0.70;;
4244;SDS011;2136;48.502;9.194;2023-12-20T04:54:30;0.80;;;0.80;;
4244;SDS011;2136;48.502;9.194;2023-12-20T04:56:59;0.87;;;0.87;;
4244;SDS011;2136;48.502;9.194;2023-12-20T04:59:26;4.10;;;0.90;;
4244;SDS011;2136;48.502;9.194;2023-12-20T05:01:52;2.60;;;0.80;;
4244;SDS011;2136;48.502;9.194;2023-12-20T05:04:19;0.80;;;0.80;;
4244;SDS011;2136;48.502;9.194;2023-12-20T05:06:46;1.00;;;0.90;;
4244;SDS011;2136;48.502;9.194;2023-12-20T05:09:14;1.30;;;1.00;;
4244;SDS011;2136;48.502;9.194;2023-12-20T05:11:42;1.37;;;0.80;;
4244;SDS011;2136;48.502;9.194;2023-12-20T05:14:11;1.37;;;0.90;;
4244;SDS011;2136;48.502;9.194;2023-12-20T05:16:37;0.90;;;0.90;;
4244;SDS011;2136;48.502;9.194;2023-12-20T05:19:04;0.80;;;0.80;;
4244;SDS011;2136;48.502;9.194;2023-12-20T05:21:31;0.80;;;0.80;;
4244;SDS011;2136;48.502;9.194;2023-12-20T05:23:58;0.90;;;0.90;;
4244;SDS011;2136;48.502;9.194;2023-12-20T05:26:25;1.17;;;0.90;;
4244;SDS011;2136;48.502;9.194;2023-12-20T05:28:54;0.70;;;0.70;;
4244;SDS011;2136;48.502;9.194;2023-12-20T05:31:22;1.20;;;1.10;;
4244;SDS011;2136;48.502;9.194;2023-12-20T05:33:49;2.20;;;1.10;;
4244;SDS011;2136;48.502;9.194;2023-12-20T05:36:16;1.00;;;1.00;;
4244;SDS011;2136;48.502;9.194;2023-12-20T05:38:43;1.20;;;1.10;;
4244;SDS011;2136;48.502;9.194;2023-12-20T05:41:09;1.17;;;0.90;;
4244;SDS011;2136;48.502;9.194;2023-12-20T05:43:36;0.80;;;0.80;;
4244;SDS011;2136;48.502;9.194;2023-12-20T05:46:03;1.10;;;1.00;;
4244;SDS011;2136;48.502;9.194;2023-12-20T05:48:31;1.07;;;1.00;;
4244;SDS011;2136;48.502;9.194;2023-12-20T05:50:58;1.50;;;1.07;;
4244;SDS011;2136;48.502;9.194;2023-12-20T05:53:25;1.00;;;0.90;;
4244;SDS011;2136;48.502;9.194;2023-12-20T05:55:52;1.33;;;0.97;;
4244;SDS011;2136;48.502;9.194;2023-12-20T05:58:19;1.23;;;1.07;;
4244;SDS011;2136;48.502;9.194;2023-12-20T06:00:45;4.33;;;1.00;;
4244;SDS011;2136;48.502;9.194;2023-12-20T06:03:13;0.70;;;0.70;;
4244;SDS011;2136;48.502;9.194;2023-12-20T06:05:42;3.00;;;1.20;;
4244;SDS011;2136;48.502;9.194;2023-12-20T06:08:08;1.10;;;1.00;;
4244;SDS011;2136;48.502;9.194;2023-12-20T06:10:36;0.60;;;0.60;;
4244;SDS011;2136;48.502;9.194;2023-12-20T06:13:03;1.17;;;0.93;;
4244;SDS011;2136;48.502;9.194;2023-12-20T06:15:31;0.80;;;0.80;;
4244;SDS011;2136;48.502;9.194;2023-12-20T06:17:58;0.70;;;0.70;;
4244;SDS011;2136;48.502;9.194;2023-12-20T06:20:25;0.70;;;0.70;;
4244;SDS011;2136;48.502;9.194;2023-12-20T06:22:54;0.90;;;0.90;;
4244;SDS011;2136;48.502;9.194;2023-12-20T06:25:21;1.15;;;0.90;;
4244;SDS011;2136;48.502;9.194;2023-12-20T06:27:47;1.67;;;1.20;;
4244;SDS011;2136;48.502;9.194;2023-12-20T06:30:15;1.20;;;0.90;;
4244;SDS011;2136;48.502;9.194;2023-12-20T06:32:42;6.97;;;2.80;;
4244;SDS011;2136;48.502;9.194;2023-12-20T06:35:09;3.63;;;2.60;;
4244;SDS011;2136;48.502;9.194;2023-12-20T06:37:35;5.60;;;2.30;;
4244;SDS011;2136;48.502;9.194;2023-12-20T06:40:04;1.73;;;1.00;;
4244;SDS011;2136;48.502;9.194;2023-12-20T06:42:32;4.13;;;1.97;;
4244;SDS011;2136;48.502;9.194;2023-12-20T06:44:59;0.60;;;0.60;;
4244;SDS011;2136;48.502;9.194;2023-12-20T06:47:26;0.80;;;0.70;;
4244;SDS011;2136;48.502;9.194;2023-12-20T06:49:52;2.30;;;1.23;;
4244;SDS011;2136;48.502;9.194;2023-12-20T06:52:19;1.17;;;1.13;;
4244;SDS011;2136;48.502;9.194;2023-12-20T06:54:46;0.90;;;0.90;;
4244;SDS011;2136;48.502;9.194;2023-12-20T06:57:15;2.47;;;2.00;;
4244;SDS011;2136;48.502;9.194;2023-12-20T06:59:42;1.00;;;0.90;;
4244;SDS011;2136;48.502;9.194;2023-12-20T07:02:09;1.53;;;1.43;;
4244;SDS011;2136;48.502;9.194;2023-12-20T07:04:38;1.43;;;1.17;;
4244;SDS011;2136;48.502;9.194;2023-12-20T07:07:05;0.90;;;0.90;;
4244;SDS011;2136;48.502;9.194;2023-12-20T07:09:32;1.77;;;1.00;;
4244;SDS011;2136;48.502;9.194;2023-12-20T07:11:59;0.60;;;0.60;;
4244;SDS011;2136;48.502;9.194;2023-12-20T07:14:27;0.70;;;0.70;;
4244;SDS011;2136;48.502;9.194;2023-12-20T07:16:54;2.30;;;0.80;;
4244;SDS011;2136;48.502;9.194;2023-12-20T07:19:22;0.90;;;0.90;;
4244;SDS011;2136;48.502;9.194;2023-12-20T07:21:49;2.00;;;1.33;;
4244;SDS011;2136;48.502;9.194;2023-12-20T07:24:15;1.30;;;1.10;;
4244;SDS011;2136;48.502;9.194;2023-12-20T07:26:42;1.13;;;1.10;;
4244;SDS011;2136;48.502;9.194;2023-12-20T07:29:09;1.13;;;1.00;;
4244;SDS011;2136;48.502;9.194;2023-12-20T07:31:37;2.10;;;1.17;;
4244;SDS011;2136;48.502;9.194;2023-12-20T07:34:04;2.77;;;1.80;;
4244;SDS011;2136;48.502;9.194;2023-12-20T07:36:31;4.77;;;0.80;;
4244;SDS011;2136;48.502;9.194;2023-12-20T07:38:58;1.37;;;1.03;;
4244;SDS011;2136;48.502;9.194;2023-12-20T07:41:25;4.30;;;1.40;;
4244;SDS011;2136;48.502;9.194;2023-12-20T07:43:52;2.33;;;1.33;;
4244;SDS011;2136;48.502;9.194;2023-12-20T07:46:19;1.40;;;1.30;;
4244;SDS011;2136;48.502;9.194;2023-12-20T07:48:50;1.00;;;1.00;;
4244;SDS011;2136;48.502;9.194;2023-12-20T07:51:16;1.60;;;1.20;;
4244;SDS011;2136;48.502;9.194;2023-12-20T07:53:44;2.00;;;1.00;;
4244;SDS011;2136;48.502;9.194;2023-12-20T07:56:14;2.77;;;1.30;;
4244;SDS011;2136;48.502;9.194;2023-12-20T07:58:41;3.07;;;1.20;;
4244;SDS011;2136;48.502;9.194;2023-12-20T08:01:08;1.10;;;1.10;;
4244;SDS011;2136;48.502;9.194;2023-12-20T08:03:35;1.50;;;1.40;;
4244;SDS011;2136;48.502;9.194;2023-12-20T08:06:04;0.90;;;0.90;;
4244;SDS011;2136;48.502;9.194;2023-12-20T08:08:31;1.67;;;1.10;;
4244;SDS011;2136;48.502;9.194;2023-12-20T08:10:58;1.30;;;1.20;;
4244;SDS011;2136;48.502;9.194;2023-12-20T08:13:25;1.30;;;1.20;;
4244;SDS011;2136;48.502;9.194;2023-12-20T08:15:52;0.93;;;0.90;;
4244;SDS011;2136;48.502;9.194;2023-12-20T08:18:21;0.90;;;0.90;;
4244;SDS011;2136;48.502;9.194;2023-12-20T08:20:48;1.53;;;1.00;;
4244;SDS011;2136;48.502;9.194;2023-12-20T08:23:16;1.80;;;1.00;;
4244;SDS011;2136;48.502;9.194;2023-12-20T08:25:43;1.23;;;1.10;;
4244;SDS011;2136;48.502;9.194;2023-12-20T08:28:11;9.30;;;3.30;;
4244;SDS011;2136;48.502;9.194;2023-12-20T08:30:37;1.40;;;1.30;;
4244;SDS011;2136;48.502;9.194;2023-12-20T08:33:05;3.80;;;1.38;;
4244;SDS011;2136;48.502;9.194;2023-12-20T08:35:36;2.13;;;1.23;;
4244;SDS011;2136;48.502;9.194;2023-12-20T08:38:03;1.33;;;1.23;;
4244;SDS011;2136;48.502;9.194;2023-12-20T08:40:31;1.97;;;1.20;;
4244;SDS011;2136;48.502;9.194;2023-12-20T08:42:58;1.30;;;1.23;;
4244;SDS011;2136;48.502;9.194;2023-12-20T08:45:25;1.47;;;1.37;;
4244;SDS011;2136;48.502;9.194;2023-12-20T08:47:52;1.00;;;1.00;;
4244;SDS011;2136;48.502;9.194;2023-12-20T08:50:19;1.80;;;0.90;;
4244;SDS011;2136;48.502;9.194;2023-12-20T08:52:45;1.30;;;1.20;;
4244;SDS011;2136;48.502;9.194;2023-12-20T08:55:12;1.13;;;1.03;;
4244;SDS011;2136;48.502;9.194;2023-12-20T08:57:42;1.07;;;1.07;;
4244;SDS011;2136;48.502;9.194;2023-12-20T09:00:10;1.30;;;1.30;;
4244;SDS011;2136;48.502;9.194;2023-12-20T09:02:37;1.30;;;1.00;;
4244;SDS011;2136;48.502;9.194;2023-12-20T09:05:05;1.03;;;0.83;;
4244;SDS011;2136;48.502;9.194;2023-12-20T09:07:32;0.70;;;0.70;;
4244;SDS011;2136;48.502;9.194;2023-12-20T09:09:58;0.80;;;0.80;;
4244;SDS011;2136;48.502;9.194;2023-12-20T09:12:25;0.90;;;0.90;;
4244;SDS011;2136;48.502;9.194;2023-12-20T09:14:54;0.73;;;0.73;;
4244;SDS011;2136;48.502;9.194;2023-12-20T09:17:20;0.73;;;0.73;;
4244;SDS011;2136;48.502;9.194;2023-12-20T09:19:48;1.20;;;0.87;;
4244;SDS011;2136;48.502;9.194;2023-12-20T09:22:15;1.00;;;1.00;;
4244;SDS011;2136;48.502;9.194;2023-12-20T09:24:42;1.40;;;1.30;;
4244;SDS011;2136;48.502;9.194;2023-12-20T09:27:09;1.13;;;1.03;;
4244;SDS011;2136;48.502;9.194;2023-12-20T09:29:36;0.90;;;0.90;;
4244;SDS011;2136;48.502;9.194;2023-12-20T09:32:05;1.37;;;1.13;;
4244;SDS011;2136;48.502;9.194;2023-12-20T09:34:32;1.20;;;1.20;;
4244;SDS011;2136;48.502;9.194;2023-12-20T09:36:58;1.40;;;1.30;;
4244;SDS011;2136;48.502;9.194;2023-12-20T09:39:25;1.20;;;1.20;;
4244;SDS011;2136;48.502;9.194;2023-12-20T09:41:57;2.00;;;1.63;;
4244;SDS011;2136;48.502;9.194;2023-12-20T09:44:27;1.50;;;1.40;;
4244;SDS011;2136;48.502;9.194;2023-12-20T09:46:55;2.00;;;1.80;;
4244;SDS011;2136;48.502;9.194;2023-12-20T09:49:24;2.13;;;1.97;;
4244;SDS011;2136;48.502;9.194;2023-12-20T09:51:53;1.55;;;1.23;;
4244;SDS011;2136;48.502;9.194;2023-12-20T09:54:21;4.33;;;2.20;;
4244;SDS011;2136;48.502;9.194;2023-12-20T09:56:48;2.50;;;1.10;;
4244;SDS011;2136;48.502;9.194;2023-12-20T09:59:16;5.50;;;1.30;;
4244;SDS011;2136;48.502;9.194;2023-12-20T10:01:43;1.30;;;1.27;;
4244;SDS011;2136;48.502;9.194;2023-12-20T10:04:10;1.23;;;1.10;;
4244;SDS011;2136;48.502;9.194;2023-12-20T10:06:40;2.43;;;1.70;;
4244;SDS011;2136;48.502;9.194;2023-12-20T10:09:07;3.70;;;1.53;;
4244;SDS011;2136;48.502;9.194;2023-12-20T10:11:35;3.20;;;1.50;;
4244;SDS011;2136;48.502;9.194;2023-12-20T10:14:03;4.00;;;2.17;;
4244;SDS011;2136;48.502;9.194;2023-12-20T10:16:30;1.00;;;1.00;;
4244;SDS011;2136;48.502;9.194;2023-12-20T10:18:57;1.57;;;1.47;;
4244;SDS011;2136;48.502;9.194;2023-12-20T10:21:25;2.10;;;1.70;;
4244;SDS011;2136;48.502;9.194;2023-12-20T10:23:53;1.80;;;1.50;;
4244;SDS011;2136;48.502;9.194;2023-12-20T10:26:21;1.83;;;1.70;;
4244;SDS011;2136;48.502;9.194;2023-12-20T10:28:49;3.57;;;2.20;;
4244;SDS011;2136;48.502;9.194;2023-12-20T10:31:27;2.93;;;1.80;;
4244;SDS011;2136;48.502;9.194;2023-12-20T10:33:55;2.90;;;2.70;;
4244;SDS011;2136;48.502;9.194;2023-12-20T10:36:24;2.47;;;1.23;;
4244;SDS011;2136;48.502;9.194;2023-12-20T10:38:53;3.27;;;1.60;;
4244;SDS011;2136;48.502;9.194;2023-12-20T10:41:25;1.63;;;1.10;;
4244;SDS011;2136;48.502;9.194;2023-12-20T10:43:53;2.20;;;1.30;;
4244;SDS011;2136;48.502;9.194;2023-12-20T10:46:24;1.07;;;1.00;;
4244;SDS011;2136;48.502;9.194;2023-12-20T10:48:53;2.20;;;1.63;;
4244;SDS011;2136;48.502;9.194;2023-12-20T10:51:20;1.90;;;1.30;;
4244;SDS011;2136;48.502;9.194;2023-12-20T10:53:48;1.50;;;1.40;;
4244;SDS011;2136;48.502;9.194;2023-12-20T10:56:17;1.67;;;1.30;;
4244;SDS011;2136;48.502;9.194;2023-12-20T10:58:44;2.20;;;1.10;;
4244;SDS011;2136;48.502;9.194;2023-12-20T11:01:12;3.87;;;1.30;;
4244;SDS011;2136;48.502;9.194;2023-12-20T11:03:42;4.07;;;1.70;;
4244;SDS011;2136;48.502;9.194;2023-12-20T11:06:15;3.83;;;1.50;;
4244;SDS011;2136;48.502;9.194;2023-12-20T11:08:59;3.47;;;1.23;;
4244;SDS011;2136;48.502;9.194;2023-12-20T11:11:37;1.30;;;1.20;;
4244;SDS011;2136;48.502;9.194;2023-12-20T11:14:14;1.80;;;1.23;;
4244;SDS011;2136;48.502;9.194;2023-12-20T11:16:43;2.70;;;1.60;;
4244;SDS011;2136;48.502;9.194;2023-12-20T11:19:10;2.40;;;1.03;;
4244;SDS011;2136;48.502;9.194;2023-12-20T11:21:39;1.07;;;1.07;;
4244;SDS011;2136;48.502;9.194;2023-12-20T11:24:06;2.92;;;1.40;;
4244;SDS011;2136;48.502;9.194;2023-12-20T11:26:34;3.23;;;1.30;;
4244;SDS011;2136;48.502;9.194;2023-12-20T11:31:57;1.73;;;1.13;;
4244;SDS011;2136;48.502;9.194;2023-12-20T11:34:26;6.20;;;1.47;;
4244;SDS011;2136;48.502;9.194;2023-12-20T11:36:58;2.03;;;1.30;;
4244;SDS011;2136;48.502;9.194;2023-12-20T11:39:26;1.27;;;1.17;;
4244;SDS011;2136;48.502;9.194;2023-12-20T11:41:54;7.77;;;1.70;;
4244;SDS011;2136;48.502;9.194;2023-12-20T11:44:22;1.50;;;1.40;;
4244;SDS011;2136;48.502;9.194;2023-12-20T11:46:52;5.73;;;1.30;;
4244;SDS011;2136;48.502;9.194;2023-12-20T11:49:23;4.03;;;1.83;;
4244;SDS011;2136;48.502;9.194;2023-12-20T11:51:50;2.20;;;1.70;;
4244;SDS011;2136;48.502;9.194;2023-12-20T11:54:17;4.37;;;1.70;;
4244;SDS011;2136;48.502;9.194;2023-12-20T11:56:45;2.83;;;1.43;;
4244;SDS011;2136;48.502;9.194;2023-12-20T11:59:12;0.90;;;0.90;;
4244;SDS011;2136;48.502;9.194;2023-12-20T12:01:39;1.10;;;1.00;;
4244;SDS011;2136;48.502;9.194;2023-12-20T12:04:07;2.83;;;1.20;;
4244;SDS011;2136;48.502;9.194;2023-12-20T12:06:35;2.50;;;1.40;;
4244;SDS011;2136;48.502;9.194;2023-12-20T12:09:02;8.13;;;1.47;;
4244;SDS011;2136;48.502;9.194;2023-12-20T12:11:29;1.10;;;1.10;;
4244;SDS011;2136;48.502;9.194;2023-12-20T12:13:56;2.20;;;1.30;;
4244;SDS011;2136;48.502;9.194;2023-12-20T12:16:23;2.90;;;1.50;;
4244;SDS011;2136;48.502;9.194;2023-12-20T12:18:55;3.07;;;1.43;;
4244;SDS011;2136;48.502;9.194;2023-12-20T12:21:24;2.57;;;1.47;;
4244;SDS011;2136;48.502;9.194;2023-12-20T12:23:51;3.77;;;1.43;;
4244;SDS011;2136;48.502;9.194;2023-12-20T12:26:18;3.33;;;1.50;;
4244;SDS011;2136;48.502;9.194;2023-12-20T12:28:45;3.93;;;1.60;;
4244;SDS011;2136;48.502;9.194;2023-12-20T12:31:15;2.57;;;1.47;;
4244;SDS011;2136;48.502;9.194;2023-12-20T12:33:42;4.23;;;1.63;;
4244;SDS011;2136;48.502;9.194;2023-12-20T12:36:10;4.70;;;1.70;;
4244;SDS011;2136;48.502;9.194;2023-12-20T12:38:38;4.63;;;1.83;;
4244;SDS011;2136;48.502;9.194;2023-12-20T12:41:05;6.43;;;1.47;;
4244;SDS011;2136;48.502;9.194;2023-12-20T12:43:32;1.50;;;1.40;;
4244;SDS011;2136;48.502;9.194;2023-12-20T12:46:00;5.03;;;1.57;;
4244;SDS011;2136;48.502;9.194;2023-12-20T12:48:27;3.90;;;1.37;;
4244;SDS011;2136;48.502;9.194;2023-12-20T12:50:54;6.13;;;1.73;;
4244;SDS011;2136;48.502;9.194;2023-12-20T12:53:24;6.90;;;1.77;;
4244;SDS011;2136;48.502;9.194;2023-12-20T12:55:53;4.63;;;1.37;;
4244;SDS011;2136;48.502;9.194;2023-12-20T12:58:20;2.20;;;1.10;;
4244;SDS011;2136;48.502;9.194;2023-12-20T13:00:47;3.37;;;1.63;;
4244;SDS011;2136;48.502;9.194;2023-12-20T13:03:14;1.60;;;1.40;;
4244;SDS011;2136;48.502;9.194;2023-12-20T13:05:41;5.70;;;1.37;;
4244;SDS011;2136;48.502;9.194;2023-12-20T13:08:08;9.30;;;1.40;;
4244;SDS011;2136;48.502;9.194;2023-12-20T13:10:37;2.90;;;1.27;;
4244;SDS011;2136;48.502;9.194;2023-12-20T13:13:05;2.37;;;1.43;;
4244;SDS011;2136;48.502;9.194;2023-12-20T13:15:32;4.20;;;2.50;;
4244;SDS011;2136;48.502;9.194;2023-12-20T13:17:59;3.70;;;1.23;;
4244;SDS011;2136;48.502;9.194;2023-12-20T13:20:26;5.47;;;1.43;;
4244;SDS011;2136;48.502;9.194;2023-12-20T13:22:53;4.17;;;1.33;;
4244;SDS011;2136;48.502;9.194;2023-12-20T13:25:19;3.80;;;1.27;;
4244;SDS011;2136;48.502;9.194;2023-12-20T13:27:46;4.63;;;1.47;;
4244;SDS011;2136;48.502;9.194;2023-12-20T13:30:15;5.70;;;1.37;;
4244;SDS011;2136;48.502;9.194;2023-12-20T13:32:42;7.03;;;1.40;;
4244;SDS011;2136;48.502;9.194;2023-12-20T13:35:09;2.90;;;1.40;;
4244;SDS011;2136;48.502;9.194;2023-12-20T13:37:36;2.07;;;1.40;;
4244;SDS011;2136;48.502;9.194;2023-12-20T13:40:05;2.13;;;1.13;;
4244;SDS011;2136;48.502;9.194;2023-12-20T13:42:33;2.60;;;1.70;;
4244;SDS011;2136;48.502;9.194;2023-12-20T13:44:59;1.53;;;1.03;;
4244;SDS011;2136;48.502;9.194;2023-12-20T13:47:28;4.53;;;1.33;;
4244;SDS011;2136;48.502;9.194;2023-12-20T13:49:55;3.30;;;1.47;;
4244;SDS011;2136;48.502;9.194;2023-12-20T13:52:23;3.93;;;1.03;;
4244;SDS011;2136;48.502;9.194;2023-12-20T13:54:50;7.60;;;1.40;;
4244;SDS011;2136;48.502;9.194;2023-12-20T13:57:17;1.90;;;1.50;;
4244;SDS011;2136;48.502;9.194;2023-12-20T13:59:43;2.67;;;1.40;;
4244;SDS011;2136;48.502;9.194;2023-12-20T14:02:10;5.70;;;1.70;;
4244;SDS011;2136;48.502;9.194;2023-12-20T14:04:39;3.53;;;1.37;;
4244;SDS011;2136;48.502;9.194;2023-12-20T14:07:06;3.67;;;1.33;;
4244;SDS011;2136;48.502;9.194;2023-12-20T14:09:33;5.20;;;1.30;;
4244;SDS011;2136;48.502;9.194;2023-12-20T14:12:00;2.57;;;1.20;;
4244;SDS011;2136;48.502;9.194;2023-12-20T14:14:26;4.70;;;1.70;;
4244;SDS011;2136;48.502;9.194;2023-12-20T14:16:53;4.70;;;1.40;;
4244;SDS011;2136;48.502;9.194;2023-12-20T14:19:20;3.00;;;1.20;;
4244;SDS011;2136;48.502;9.194;2023-12-20T14:21:48;2.80;;;1.40;;
4244;SDS011;2136;48.502;9.194;2023-12-20T14:24:15;4.03;;;1.60;;
4244;SDS011;2136;48.502;9.194;2023-12-20T14:26:42;4.57;;;3.03;;
4244;SDS011;2136;48.502;9.194;2023-12-20T14:29:09;6.80;;;3.70;;
4244;SDS011;2136;48.502;9.194;2023-12-20T14:31:36;3.07;;;2.77;;
4244;SDS011;2136;48.502;9.194;2023-12-20T14:34:03;8.13;;;4.30;;
4244;SDS011;2136;48.502;9.194;2023-12-20T14:36:31;4.77;;;2.67;;
4244;SDS011;2136;48.502;9.194;2023-12-20T14:38:59;4.57;;;2.50;;
4244;SDS011;2136;48.502;9.194;2023-12-20T14:41:27;5.53;;;2.83;;
4244;SDS011;2136;48.502;9.194;2023-12-20T14:43:54;8.03;;;2.27;;
4244;SDS011;2136;48.502;9.194;2023-12-20T14:46:21;3.97;;;2.33;;
4244;SDS011;2136;48.502;9.194;2023-12-20T14:48:48;6.57;;;2.47;;
4244;SDS011;2136;48.502;9.194;2023-12-20T14:51:15;4.37;;;2.67;;
4244;SDS011;2136;48.502;9.194;2023-12-20T14:53:42;3.13;;;1.47;;
4244;SDS011;2136;48.502;9.194;2023-12-20T14:56:10;5.53;;;1.80;;
4244;SDS011;2136;48.502;9.194;2023-12-20T14:58:37;2.37;;;1.63;;
4244;SDS011;2136;48.502;9.194;2023-12-20T15:01:03;8.77;;;2.00;;
4244;SDS011;2136;48.502;9.194;2023-12-20T15:03:33;7.57;;;2.97;;
4244;SDS011;2136;48.502;9.194;2023-12-20T15:06:00;6.90;;;3.90;;
4244;SDS011;2136;48.502;9.194;2023-12-20T15:08:27;3.23;;;1.50;;
4244;SDS011;2136;48.502;9.194;2023-12-20T15:10:53;7.37;;;2.00;;
4244;SDS011;2136;48.502;9.194;2023-12-20T15:13:22;2.20;;;1.60;;
4244;SDS011;2136;48.502;9.194;2023-12-20T15:15:49;2.73;;;1.50;;
4244;SDS011;2136;48.502;9.194;2023-12-20T15:18:15;1.90;;;1.50;;
4244;SDS011;2136;48.502;9.194;2023-12-20T15:20:42;5.33;;;1.93;;